Time;durP1;ratioP1;P1;durP2;ratioP2;P2;SDS_P1;SDS_P2;PMS_P1;PMS_P2;Temp;Humidity;BMP_temperature;BMP_pressure;BME280_temperature;BME280_humidity;BME280_pressure;Samples;Min_cycle;Max_cycle;Signal;HPM_P1;HPM_P2
2023/12/25 06:44:47;;;;;;;1.25;0.50;;;;;;;;;;10682933;27;20428;-84
2023/12/25 06:49:48;;;;;;;0.88;0.50;;;;;;;;;;10645491;28;20072;-84
2023/12/25 06:54:49;;;;;;;0.30;0.30;;;;;;;;;;10640440;28;20027;-84
2023/12/25 06:59:50;;;;;;;0.60;0.40;;;;;;;;;;10643650;28;20062;-85
2023/12/25 07:04:51;;;;;;;1.88;0.47;;;;;;;;;;10643682;28;20031;-85
2023/12/25 07:09:53;;;;;;;1.38;0.40;;;;;;;;;;10647935;28;20023;-84
2023/12/25 07:14:55;;;;;;;0.40;0.40;;;;;;;;;;10652048;28;20074;-84
2023/12/25 07:19:56;;;;;;;0.50;0.50;;;;;;;;;;10627652;28;20023;-84
2023/12/25 07:25:04;;;;;;;0.40;0.40;;;;;;;;;;10631961;28;20037;-84
2023/12/25 07:30:06;;;;;;;0.30;0.28;;;;;;;;;;10634630;28;20024;-84
2023/12/25 07:35:07;;;;;;;0.20;0.20;;;;;;;;;;10633986;27;20019;-84
2023/12/25 07:40:10;;;;;;;0.10;0.10;;;;;;;;;;10635462;28;20414;-84
2023/12/25 07:45:14;;;;;;;0.05;0.05;;;;;;;;;;10635653;28;20019;-84
2023/12/25 07:50:15;;;;;;;0.20;0.20;;;;;;;;;;10637295;28;20031;-85
2023/12/25 07:55:16;;;;;;;0.95;0.15;;;;;;;;;;10613114;28;20030;-84
2023/12/25 08:00:18;;;;;;;0.57;0.20;;;;;;;;;;10608469;28;20045;-84
2023/12/25 08:05:19;;;;;;;0.30;0.30;;;;;;;;;;10607432;28;20027;-84
2023/12/25 08:10:20;;;;;;;0.30;0.20;;;;;;;;;;10611241;28;20031;-85
2023/12/25 08:15:21;;;;;;;0.65;0.20;;;;;;;;;;10620012;28;20032;-85
2023/12/25 08:20:22;;;;;;;0.98;0.30;;;;;;;;;;10637514;28;20083;-84
2023/12/25 08:25:23;;;;;;;0.28;0.28;;;;;;;;;;10626080;28;20080;-84
2023/12/25 08:30:24;;;;;;;0.47;0.25;;;;;;;;;;10607623;28;20039;-84
2023/12/25 08:35:25;;;;;;;0.45;0.45;;;;;;;;;;10609148;28;20049;-84
2023/12/25 08:40:27;;;;;;;0.80;0.40;;;;;;;;;;10608027;28;20082;-84
2023/12/25 08:45:28;;;;;;;0.95;0.50;;;;;;;;;;10610300;28;20020;-84
2023/12/25 08:50:29;;;;;;;0.77;0.30;;;;;;;;;;10610175;28;20506;-85
2023/12/25 08:55:31;;;;;;;1.10;0.60;;;;;;;;;;10613523;28;20033;-85
2023/12/25 09:00:32;;;;;;;0.50;0.32;;;;;;;;;;10630794;28;20008;-84
2023/12/25 09:05:33;;;;;;;0.73;0.43;;;;;;;;;;10607744;28;20051;-85
2023/12/25 09:10:34;;;;;;;;;;;;;;;;;;10603190;28;20040;-84
2023/12/25 09:15:35;;;;;;;0.70;0.35;;;;;;;;;;10603886;28;20002;-84
2023/12/25 09:20:36;;;;;;;1.40;0.90;;;;;;;;;;10605800;28;20031;-84
2023/12/25 09:25:37;;;;;;;1.00;0.50;;;;;;;;;;10607760;28;20052;-85
2023/12/25 09:30:39;;;;;;;;;;;;;;;;;;10605187;28;20055;-84
2023/12/25 09:35:40;;;;;;;;;;;;;;;;;;10618778;28;19938;-84
2023/12/25 09:40:41;;;;;;;0.70;0.30;;;;;;;;;;10627870;28;19919;-84
2023/12/25 09:45:42;;;;;;;;;;;;;;;;;;10593217;28;20123;-85
2023/12/25 09:50:43;;;;;;;1.75;0.50;;;;;;;;;;10585274;28;19908;-85
2023/12/25 09:55:45;;;;;;;1.40;0.50;;;;;;;;;;10585500;28;20032;-85
2023/12/25 10:00:47;;;;;;;1.67;0.50;;;;;;;;;;10585974;28;20028;-84
2023/12/25 10:05:48;;;;;;;1.90;1.08;;;;;;;;;;10587074;28;20038;-84
2023/12/25 10:10:53;;;;;;;0.80;0.40;;;;;;;;;;10587800;28;20509;-84
2023/12/25 10:15:54;;;;;;;0.60;0.40;;;;;;;;;;10588576;28;20038;-84
2023/12/25 10:20:57;;;;;;;1.05;0.50;;;;;;;;;;10593106;28;20020;-85
2023/12/25 10:25:59;;;;;;;0.35;0.30;;;;;;;;;;10602610;28;20049;-84
2023/12/25 10:31:01;;;;;;;1.20;0.50;;;;;;;;;;10603347;28;20024;-85
2023/12/25 10:36:03;;;;;;;1.10;0.52;;;;;;;;;;10604825;28;20027;-85
2023/12/25 10:41:21;;;;;;;0.65;0.40;;;;;;;;;;10621550;28;20089;-85
2023/12/25 10:46:23;;;;;;;0.70;0.32;;;;;;;;;;10609591;28;20019;-85
2023/12/25 10:51:29;;;;;;;0.95;0.40;;;;;;;;;;10588679;28;20037;-85
2023/12/25 10:56:35;;;;;;;0.50;0.30;;;;;;;;;;10590027;28;20024;-85
2023/12/25 11:01:37;;;;;;;1.42;0.32;;;;;;;;;;10590098;28;20023;-84
2023/12/25 11:06:38;;;;;;;0.60;0.30;;;;;;;;;;10586692;28;20072;-85
2023/12/25 11:11:41;;;;;;;0.20;0.20;;;;;;;;;;10587925;28;20032;-85
2023/12/25 11:16:42;;;;;;;0.80;0.50;;;;;;;;;;10588664;28;20034;-85
2023/12/25 11:21:43;;;;;;;0.70;0.40;;;;;;;;;;10588294;28;20027;-85
2023/12/25 11:26:45;;;;;;;0.43;0.30;;;;;;;;;;10589509;28;20549;-85
2023/12/25 11:31:47;;;;;;;1.10;0.63;;;;;;;;;;10595585;28;20047;-84
2023/12/25 11:36:50;;;;;;;0.57;0.57;;;;;;;;;;10595115;28;20479;-84
2023/12/25 11:41:51;;;;;;;0.50;0.45;;;;;;;;;;10634294;28;20059;-85
2023/12/25 11:46:52;;;;;;;1.55;0.50;;;;;;;;;;10618029;28;20398;-85
2023/12/25 11:51:53;;;;;;;0.63;0.40;;;;;;;;;;10615952;28;20015;-85
2023/12/25 11:56:54;;;;;;;;;;;;;;;;;;10631505;28;20039;-84
2023/12/25 12:01:56;;;;;;;1.10;0.40;;;;;;;;;;10628007;28;19915;-85
2023/12/25 12:06:57;;;;;;;0.68;0.45;;;;;;;;;;10609042;28;20023;-84
2023/12/25 12:11:58;;;;;;;1.35;0.50;;;;;;;;;;10609704;28;20020;-84
2023/12/25 12:16:59;;;;;;;;;;;;;;;;;;10610115;28;20050;-85
2023/12/25 12:22:00;;;;;;;0.75;0.40;;;;;;;;;;10611871;28;19967;-85
2023/12/25 12:27:07;;;;;;;0.50;0.45;;;;;;;;;;10610090;28;20032;-86
2023/12/25 12:32:08;;;;;;;0.80;0.35;;;;;;;;;;10617112;28;20028;-85
2023/12/25 12:37:10;;;;;;;1.40;0.88;;;;;;;;;;10606566;28;20023;-85
2023/12/25 12:42:11;;;;;;;0.55;0.40;;;;;;;;;;10602568;28;20046;-86
2023/12/25 12:47:12;;;;;;;0.57;0.40;;;;;;;;;;10604508;27;20019;-86
2023/12/25 12:52:13;;;;;;;;;;;;;;;;;;10606047;28;20031;-85
2023/12/25 12:57:14;;;;;;;1.00;0.60;;;;;;;;;;10539165;22;19920;-82
2023/12/25 13:02:15;;;;;;;0.75;0.50;;;;;;;;;;10515372;28;20029;-82
2023/12/25 13:07:16;;;;;;;;;;;;;;;;;;10474535;28;20044;-82
2023/12/25 13:12:17;;;;;;;1.10;0.60;;;;;;;;;;10472618;28;19908;-82
2023/12/25 13:17:18;;;;;;;;;;;;;;;;;;10468713;28;20029;-82
2023/12/25 13:22:19;;;;;;;0.30;0.30;;;;;;;;;;10468181;28;19909;-82
2023/12/25 13:27:21;;;;;;;;;;;;;;;;;;10469368;28;20059;-82
2023/12/25 13:32:22;;;;;;;0.60;0.30;;;;;;;;;;10471173;28;19905;-82
2023/12/25 13:37:23;;;;;;;0.93;0.40;;;;;;;;;;10472263;28;20058;-82
2023/12/25 13:42:27;;;;;;;;;;;;;;;;;;10469947;28;20063;-82
2023/12/25 13:47:28;;;;;;;1.33;0.50;;;;;;;;;;10468908;28;19927;-82
2023/12/25 13:52:29;;;;;;;;;;;;;;;;;;10466719;28;20051;-81
2023/12/25 13:57:30;;;;;;;0.63;0.40;;;;;;;;;;10467149;28;19919;-82
2023/12/25 14:02:31;;;;;;;0.68;0.40;;;;;;;;;;10467695;28;20057;-82
2023/12/25 14:07:32;;;;;;;;;;;;;;;;;;10469229;28;20111;-82
2023/12/25 14:12:33;;;;;;;0.75;0.25;;;;;;;;;;10469992;28;19913;-82
2023/12/25 14:17:34;;;;;;;;;;;;;;;;;;10469280;28;20068;-83
2023/12/25 14:22:35;;;;;;;0.95;0.60;;;;;;;;;;10467220;28;19915;-83
2023/12/25 14:27:36;;;;;;;;;;;;;;;;;;10468872;28;20032;-83
2023/12/25 14:32:37;;;;;;;2.20;0.95;;;;;;;;;;10470240;28;19905;-83
2023/12/25 14:37:38;;;;;;;;;;;;;;;;;;10467891;28;20025;-83
2023/12/25 14:42:39;;;;;;;1.40;0.60;;;;;;;;;;10468668;28;19909;-83
2023/12/25 14:47:41;;;;;;;;;;;;;;;;;;10467204;28;20029;-83
2023/12/25 14:52:42;;;;;;;1.83;0.98;;;;;;;;;;10467121;28;19905;-83
2023/12/25 14:57:43;;;;;;;;;;;;;;;;;;10474089;28;20029;-84
2023/12/25 15:02:44;;;;;;;1.15;0.70;;;;;;;;;;10490948;28;19909;-84
2023/12/25 15:07:45;;;;;;;;;;;;;;;;;;10485212;28;20017;-84
2023/12/25 15:12:47;;;;;;;1.40;0.70;;;;;;;;;;10480345;28;20334;-84
2023/12/25 15:17:48;;;;;;;1.02;0.73;;;;;;;;;;10482943;28;20115;-84
2023/12/25 15:22:49;;;;;;;0.50;0.40;;;;;;;;;;10477727;28;20032;-84
2023/12/25 15:27:50;;;;;;;;;;;;;;;;;;10476310;28;20067;-84
2023/12/25 15:32:51;;;;;;;1.05;0.70;;;;;;;;;;10477719;28;19915;-84
2023/12/25 15:37:52;;;;;;;2.83;1.40;;;;;;;;;;10476254;28;20032;-84
2023/12/25 15:42:53;;;;;;;;;;;;;;;;;;10474786;28;20075;-84
2023/12/25 15:47:55;;;;;;;1.38;0.90;;;;;;;;;;10475554;28;19911;-84
2023/12/25 15:52:58;;;;;;;1.23;0.95;;;;;;;;;;10473716;28;20503;-84
2023/12/25 15:58:00;;;;;;;2.70;1.88;;;;;;;;;;10475147;28;20032;-84
2023/12/25 16:03:01;;;;;;;;;;;;;;;;;;10474054;28;20043;-84
2023/12/25 16:08:02;;;;;;;;;;;;;;;;;;10474357;28;19905;-83
2023/12/25 16:13:03;;;;;;;3.38;2.80;;;;;;;;;;10472542;28;19908;-83
2023/12/25 16:18:04;;;;;;;3.25;2.92;;;;;;;;;;10471590;28;20056;-84
2023/12/25 16:23:05;;;;;;;2.88;2.50;;;;;;;;;;10471589;28;20511;-84
2023/12/25 16:28:08;;;;;;;;;;;;;;;;;;10473050;28;20088;-84
2023/12/25 16:33:09;;;;;;;2.65;2.03;;;;;;;;;;10472541;28;20283;-83
2023/12/25 16:38:10;;;;;;;2.50;1.67;;;;;;;;;;10472337;28;20108;-83
2023/12/25 16:43:11;;;;;;;;;;;;;;;;;;10472059;28;20119;-83
2023/12/25 16:48:12;;;;;;;;;;;;;;;;;;10471366;28;20391;-82
2023/12/25 16:53:13;;;;;;;1.65;1.45;;;;;;;;;;10469368;28;19908;-82
2023/12/25 16:58:14;;;;;;;2.63;2.42;;;;;;;;;;10470149;28;20100;-83
2023/12/25 17:03:15;;;;;;;4.65;3.70;;;;;;;;;;10469964;28;20049;-83
2023/12/25 17:08:17;;;;;;;;;;;;;;;;;;10473164;28;20021;-83
2023/12/25 17:13:18;;;;;;;1.80;1.40;;;;;;;;;;10472143;28;19995;-83
2023/12/25 17:18:18;;;;;;;;;;;;;;;;;;10471761;28;20075;-83
2023/12/25 17:23:20;;;;;;;1.67;1.42;;;;;;;;;;10471468;28;19909;-83
2023/12/25 17:28:21;;;;;;;2.95;2.17;;;;;;;;;;10473306;28;20021;-83
2023/12/25 17:33:21;;;;;;;;;;;;;;;;;;10496264;28;20025;-83
2023/12/25 17:38:23;;;;;;;2.33;1.27;;;;;;;;;;10473266;28;19905;-83
2023/12/25 17:43:24;;;;;;;2.60;1.60;;;;;;;;;;10471260;28;20078;-82
2023/12/25 17:48:25;;;;;;;1.75;1.20;;;;;;;;;;10472589;28;20021;-82
2023/12/25 17:53:26;;;;;;;3.67;2.70;;;;;;;;;;10472062;28;20471;-82
2023/12/25 17:58:27;;;;;;;3.33;2.92;;;;;;;;;;10474357;28;20031;-83
2023/12/25 18:03:28;;;;;;;2.10;1.50;;;;;;;;;;10469085;28;20099;-82
2023/12/25 18:08:30;;;;;;;;;;;;;;;;;;10471578;28;20513;-82
2023/12/25 18:13:31;;;;;;;2.30;1.70;;;;;;;;;;10468791;28;19905;-82
2023/12/25 18:18:33;;;;;;;;;;;;;;;;;;10469893;28;20025;-83
2023/12/25 18:23:34;;;;;;;1.42;0.70;;;;;;;;;;10468359;28;19913;-82
2023/12/25 18:28:35;;;;;;;;;;;;;;;;;;10464767;28;20472;-82
2023/12/25 18:33:36;;;;;;;1.02;0.80;;;;;;;;;;10459651;28;19950;-83
2023/12/25 18:38:37;;;;;;;;;;;;;;;;;;10460099;28;20048;-82
2023/12/25 18:43:38;;;;;;;2.03;1.42;;;;;;;;;;10460147;28;19916;-83
2023/12/25 18:48:40;;;;;;;;;;;;;;;;;;10461819;28;20029;-82
2023/12/25 18:53:46;;;;;;;1.10;0.80;;;;;;;;;;10483230;22;20015;-86
2023/12/25 18:58:54;;;;;;;1.30;0.60;;;;;;;;;;10590689;28;20032;-85
2023/12/25 19:04:02;;;;;;;1.23;0.70;;;;;;;;;;10589194;28;20077;-85
2023/12/25 19:09:22;;;;;;;1.00;0.70;;;;;;;;;;10592365;28;20031;-85
2023/12/25 19:14:34;;;;;;;1.67;0.90;;;;;;;;;;10591145;28;20084;-85
2023/12/25 19:19:35;;;;;;;2.50;1.80;;;;;;;;;;10615607;28;20024;-84
2023/12/25 19:24:43;;;;;;;1.20;0.80;;;;;;;;;;10617102;28;20088;-85
2023/12/25 19:29:51;;;;;;;2.58;2.20;;;;;;;;;;10620778;28;20573;-85
2023/12/25 19:34:52;;;;;;;1.60;0.90;;;;;;;;;;10613386;28;20041;-85
2023/12/25 19:39:54;;;;;;;1.58;0.73;;;;;;;;;;10613637;28;20050;-86
2023/12/25 19:44:55;;;;;;;1.00;0.80;;;;;;;;;;10611295;28;20033;-86
2023/12/25 19:49:56;;;;;;;;;;;;;;;;;;10615232;27;20091;-84
2023/12/25 19:54:57;;;;;;;1.95;1.10;;;;;;;;;;10621318;27;20279;-86
2023/12/25 19:59:58;;;;;;;1.98;1.55;;;;;;;;;;10638898;27;20106;-86
2023/12/25 20:04:59;;;;;;;2.72;1.83;;;;;;;;;;10619876;27;20394;-85
